sensor_id;sensor_type;location;lat;lon;timestamp;temperature;humidity
17252;DHT22;8742;51.716;8.790;2023-09-19T00:00:56;16.40;99.90
17252;DHT22;8742;51.716;8.790;2023-09-19T00:03:23;16.30;99.90
17252;DHT22;8742;51.716;8.790;2023-09-19T00:05:52;16.30;99.90
17252;DHT22;8742;51.716;8.790;2023-09-19T00:08:21;16.20;99.90
17252;DHT22;8742;51.716;8.790;2023-09-19T00:10:50;16.20;99.90
17252;DHT22;8742;51.716;8.790;2023-09-19T00:13:19;16.20;99.90
17252;DHT22;8742;51.716;8.790;2023-09-19T00:15:47;16.10;99.90
17252;DHT22;8742;51.716;8.790;2023-09-19T00:18:15;16.10;99.90
17252;DHT22;8742;51.716;8.790;2023-09-19T00:20:42;16.00;99.90
17252;DHT22;8742;51.716;8.790;2023-09-19T00:23:14;16.00;99.90
17252;DHT22;8742;51.716;8.790;2023-09-19T00:25:41;16.00;99.90
17252;DHT22;8742;51.716;8.790;2023-09-19T00:28:08;15.90;99.90
17252;DHT22;8742;51.716;8.790;2023-09-19T00:30:35;15.90;99.90
17252;DHT22;8742;51.716;8.790;2023-09-19T00:33:04;15.90;99.90
17252;DHT22;8742;51.716;8.790;2023-09-19T00:35:33;15.90;99.90
17252;DHT22;8742;51.716;8.790;2023-09-19T00:38:00;15.90;99.90
17252;DHT22;8742;51.716;8.790;2023-09-19T00:40:28;15.90;99.90
17252;DHT22;8742;51.716;8.790;2023-09-19T00:42:58;15.80;99.90
17252;DHT22;8742;51.716;8.790;2023-09-19T00:45:26;15.80;99.90
17252;DHT22;8742;51.716;8.790;2023-09-19T00:47:53;15.80;99.90
17252;DHT22;8742;51.716;8.790;2023-09-19T00:50:24;15.80;99.90
17252;DHT22;8742;51.716;8.790;2023-09-19T00:52:53;15.80;99.90
17252;DHT22;8742;51.716;8.790;2023-09-19T00:55:21;15.80;99.90
17252;DHT22;8742;51.716;8.790;2023-09-19T00:57:51;15.90;99.90
17252;DHT22;8742;51.716;8.790;2023-09-19T01:00:18;15.90;99.90
17252;DHT22;8742;51.716;8.790;2023-09-19T01:02:46;16.00;99.90
17252;DHT22;8742;51.716;8.790;2023-09-19T01:05:13;16.00;99.90
17252;DHT22;8742;51.716;8.790;2023-09-19T01:07:41;16.00;99.90
17252;DHT22;8742;51.716;8.790;2023-09-19T01:10:12;16.10;99.90
17252;DHT22;8742;51.716;8.790;2023-09-19T01:12:47;16.10;99.90
17252;DHT22;8742;51.716;8.790;2023-09-19T01:15:21;16.00;99.90
17252;DHT22;8742;51.716;8.790;2023-09-19T01:17:59;16.00;99.90
17252;DHT22;8742;51.716;8.790;2023-09-19T01:20:35;15.90;99.90
17252;DHT22;8742;51.716;8.790;2023-09-19T01:23:12;15.90;99.90
17252;DHT22;8742;51.716;8.790;2023-09-19T01:26:03;15.90;99.90
17252;DHT22;8742;51.716;8.790;2023-09-19T01:28:33;15.90;99.90
17252;DHT22;8742;51.716;8.790;2023-09-19T01:31:09;15.90;99.90
17252;DHT22;8742;51.716;8.790;2023-09-19T01:33:56;15.90;99.90
17252;DHT22;8742;51.716;8.790;2023-09-19T01:36:25;15.80;99.90
17252;DHT22;8742;51.716;8.790;2023-09-19T01:38:53;15.80;99.90
17252;DHT22;8742;51.716;8.790;2023-09-19T01:41:26;15.70;99.90
17252;DHT22;8742;51.716;8.790;2023-09-19T01:43:56;15.70;99.90
17252;DHT22;8742;51.716;8.790;2023-09-19T01:46:31;15.70;99.90
17252;DHT22;8742;51.716;8.790;2023-09-19T01:49:07;15.70;99.90
17252;DHT22;8742;51.716;8.790;2023-09-19T01:51:46;15.80;99.90
17252;DHT22;8742;51.716;8.790;2023-09-19T01:54:22;15.80;99.90
17252;DHT22;8742;51.716;8.790;2023-09-19T01:56:54;15.90;99.90
17252;DHT22;8742;51.716;8.790;2023-09-19T01:59:27;15.90;99.90
17252;DHT22;8742;51.716;8.790;2023-09-19T02:01:58;16.00;99.90
17252;DHT22;8742;51.716;8.790;2023-09-19T02:04:26;16.00;99.90
17252;DHT22;8742;51.716;8.790;2023-09-19T02:06:54;16.00;99.90
17252;DHT22;8742;51.716;8.790;2023-09-19T02:09:21;16.10;99.90
17252;DHT22;8742;51.716;8.790;2023-09-19T02:11:48;16.10;99.90
17252;DHT22;8742;51.716;8.790;2023-09-19T02:14:15;16.10;99.90
17252;DHT22;8742;51.716;8.790;2023-09-19T02:16:42;16.10;99.90
17252;DHT22;8742;51.716;8.790;2023-09-19T02:19:10;16.10;99.90
17252;DHT22;8742;51.716;8.790;2023-09-19T02:21:37;16.10;99.90
17252;DHT22;8742;51.716;8.790;2023-09-19T02:24:05;16.10;99.90
17252;DHT22;8742;51.716;8.790;2023-09-19T02:26:33;16.10;99.90
17252;DHT22;8742;51.716;8.790;2023-09-19T02:29:01;16.10;99.90
17252;DHT22;8742;51.716;8.790;2023-09-19T02:31:30;16.10;99.90
17252;DHT22;8742;51.716;8.790;2023-09-19T02:33:57;16.10;99.90
17252;DHT22;8742;51.716;8.790;2023-09-19T02:36:27;16.10;99.90
17252;DHT22;8742;51.716;8.790;2023-09-19T02:38:55;16.10;99.90
17252;DHT22;8742;51.716;8.790;2023-09-19T02:41:22;16.00;99.90
17252;DHT22;8742;51.716;8.790;2023-09-19T02:43:49;16.00;99.90
17252;DHT22;8742;51.716;8.790;2023-09-19T02:46:16;16.00;99.90
17252;DHT22;8742;51.716;8.790;2023-09-19T02:48:43;16.00;99.90
17252;DHT22;8742;51.716;8.790;2023-09-19T02:51:10;16.00;99.90
17252;DHT22;8742;51.716;8.790;2023-09-19T02:53:39;15.90;99.90
17252;DHT22;8742;51.716;8.790;2023-09-19T02:56:05;15.90;99.90
17252;DHT22;8742;51.716;8.790;2023-09-19T02:58:33;15.90;99.90
17252;DHT22;8742;51.716;8.790;2023-09-19T03:01:08;15.80;99.90
17252;DHT22;8742;51.716;8.790;2023-09-19T03:03:35;15.80;99.90
17252;DHT22;8742;51.716;8.790;2023-09-19T03:06:03;15.80;99.90
17252;DHT22;8742;51.716;8.790;2023-09-19T03:08:30;15.70;99.90
17252;DHT22;8742;51.716;8.790;2023-09-19T03:10:58;15.70;99.90
17252;DHT22;8742;51.716;8.790;2023-09-19T03:13:27;15.70;99.90
17252;DHT22;8742;51.716;8.790;2023-09-19T03:15:56;15.60;99.90
17252;DHT22;8742;51.716;8.790;2023-09-19T03:18:23;15.60;99.90
17252;DHT22;8742;51.716;8.790;2023-09-19T03:20:55;15.60;99.90
17252;DHT22;8742;51.716;8.790;2023-09-19T03:23:23;15.60;99.90
17252;DHT22;8742;51.716;8.790;2023-09-19T03:25:49;15.60;99.90
17252;DHT22;8742;51.716;8.790;2023-09-19T03:28:19;15.60;99.90
17252;DHT22;8742;51.716;8.790;2023-09-19T03:30:57;15.60;99.90
17252;DHT22;8742;51.716;8.790;2023-09-19T03:33:25;15.60;99.90
17252;DHT22;8742;51.716;8.790;2023-09-19T03:35:52;15.60;99.90
17252;DHT22;8742;51.716;8.790;2023-09-19T03:38:19;15.60;99.90
17252;DHT22;8742;51.716;8.790;2023-09-19T03:40:47;15.50;99.90
17252;DHT22;8742;51.716;8.790;2023-09-19T03:43:14;15.50;99.90
17252;DHT22;8742;51.716;8.790;2023-09-19T03:45:42;15.40;99.90
17252;DHT22;8742;51.716;8.790;2023-09-19T03:48:09;15.40;99.90
17252;DHT22;8742;51.716;8.790;2023-09-19T03:50:36;15.30;99.90
17252;DHT22;8742;51.716;8.790;2023-09-19T03:53:03;15.30;99.90
17252;DHT22;8742;51.716;8.790;2023-09-19T03:55:30;15.20;99.90
17252;DHT22;8742;51.716;8.790;2023-09-19T03:57:57;15.10;99.90
17252;DHT22;8742;51.716;8.790;2023-09-19T04:00:24;15.10;99.90
17252;DHT22;8742;51.716;8.790;2023-09-19T04:02:53;15.10;99.90
17252;DHT22;8742;51.716;8.790;2023-09-19T04:05:21;15.00;99.90
17252;DHT22;8742;51.716;8.790;2023-09-19T04:07:48;15.00;99.90
17252;DHT22;8742;51.716;8.790;2023-09-19T04:10:15;14.90;99.90
17252;DHT22;8742;51.716;8.790;2023-09-19T04:12:50;14.90;99.90
17252;DHT22;8742;51.716;8.790;2023-09-19T04:15:18;14.90;99.90
17252;DHT22;8742;51.716;8.790;2023-09-19T04:17:45;14.80;99.90
17252;DHT22;8742;51.716;8.790;2023-09-19T04:20:13;14.80;99.90
17252;DHT22;8742;51.716;8.790;2023-09-19T04:22:42;14.80;99.90
17252;DHT22;8742;51.716;8.790;2023-09-19T04:25:09;14.70;99.90
17252;DHT22;8742;51.716;8.790;2023-09-19T04:27:35;14.70;99.90
17252;DHT22;8742;51.716;8.790;2023-09-19T04:30:03;14.70;99.90
17252;DHT22;8742;51.716;8.790;2023-09-19T04:32:35;14.70;99.90
17252;DHT22;8742;51.716;8.790;2023-09-19T04:35:05;14.70;99.90
17252;DHT22;8742;51.716;8.790;2023-09-19T04:37:37;14.70;99.90
17252;DHT22;8742;51.716;8.790;2023-09-19T04:40:06;14.70;99.90
17252;DHT22;8742;51.716;8.790;2023-09-19T04:42:38;14.60;99.90
17252;DHT22;8742;51.716;8.790;2023-09-19T04:45:06;14.60;99.90
17252;DHT22;8742;51.716;8.790;2023-09-19T04:47:34;14.60;99.90
17252;DHT22;8742;51.716;8.790;2023-09-19T04:50:01;14.60;99.90
17252;DHT22;8742;51.716;8.790;2023-09-19T04:52:30;14.50;99.90
17252;DHT22;8742;51.716;8.790;2023-09-19T04:54:59;14.50;99.90
17252;DHT22;8742;51.716;8.790;2023-09-19T04:57:25;14.50;99.90
17252;DHT22;8742;51.716;8.790;2023-09-19T04:59:53;14.50;99.90
17252;DHT22;8742;51.716;8.790;2023-09-19T05:02:20;14.40;99.90
17252;DHT22;8742;51.716;8.790;2023-09-19T05:04:47;14.40;99.90
17252;DHT22;8742;51.716;8.790;2023-09-19T05:07:14;14.40;99.90
17252;DHT22;8742;51.716;8.790;2023-09-19T05:09:42;14.40;99.90
17252;DHT22;8742;51.716;8.790;2023-09-19T05:12:10;14.40;99.90
17252;DHT22;8742;51.716;8.790;2023-09-19T05:14:37;14.40;99.90
17252;DHT22;8742;51.716;8.790;2023-09-19T05:17:06;14.40;99.90
17252;DHT22;8742;51.716;8.790;2023-09-19T05:19:33;14.40;99.90
17252;DHT22;8742;51.716;8.790;2023-09-19T05:22:00;14.30;99.90
17252;DHT22;8742;51.716;8.790;2023-09-19T05:24:29;14.30;99.90
17252;DHT22;8742;51.716;8.790;2023-09-19T05:26:56;14.30;99.90
17252;DHT22;8742;51.716;8.790;2023-09-19T05:29:24;14.20;99.90
17252;DHT22;8742;51.716;8.790;2023-09-19T05:31:51;14.20;99.90
17252;DHT22;8742;51.716;8.790;2023-09-19T05:34:20;14.20;99.90
17252;DHT22;8742;51.716;8.790;2023-09-19T05:36:47;14.20;99.90
17252;DHT22;8742;51.716;8.790;2023-09-19T05:39:14;14.20;99.90
17252;DHT22;8742;51.716;8.790;2023-09-19T05:41:41;14.20;99.90
17252;DHT22;8742;51.716;8.790;2023-09-19T05:44:08;14.20;99.90
17252;DHT22;8742;51.716;8.790;2023-09-19T05:46:36;14.30;99.90
17252;DHT22;8742;51.716;8.790;2023-09-19T05:49:03;14.30;99.90
17252;DHT22;8742;51.716;8.790;2023-09-19T05:51:30;14.30;99.90
17252;DHT22;8742;51.716;8.790;2023-09-19T05:53:56;14.30;99.90
17252;DHT22;8742;51.716;8.790;2023-09-19T05:56:24;14.30;99.90
17252;DHT22;8742;51.716;8.790;2023-09-19T05:58:50;14.30;99.90
17252;DHT22;8742;51.716;8.790;2023-09-19T06:01:18;14.40;99.90
17252;DHT22;8742;51.716;8.790;2023-09-19T06:03:47;14.40;99.90
17252;DHT22;8742;51.716;8.790;2023-09-19T06:06:13;14.40;99.90
17252;DHT22;8742;51.716;8.790;2023-09-19T06:08:40;14.40;99.90
17252;DHT22;8742;51.716;8.790;2023-09-19T06:11:09;14.50;99.90
17252;DHT22;8742;51.716;8.790;2023-09-19T06:13:36;14.50;99.90
17252;DHT22;8742;51.716;8.790;2023-09-19T06:16:04;14.50;99.90
17252;DHT22;8742;51.716;8.790;2023-09-19T06:18:31;14.60;99.90
17252;DHT22;8742;51.716;8.790;2023-09-19T06:21:01;14.60;99.90
17252;DHT22;8742;51.716;8.790;2023-09-19T06:23:31;14.60;99.90
17252;DHT22;8742;51.716;8.790;2023-09-19T06:25:57;14.60;99.90
17252;DHT22;8742;51.716;8.790;2023-09-19T06:28:24;14.60;99.90
17252;DHT22;8742;51.716;8.790;2023-09-19T06:30:53;14.70;99.90
17252;DHT22;8742;51.716;8.790;2023-09-19T06:33:20;14.70;99.90
17252;DHT22;8742;51.716;8.790;2023-09-19T06:35:48;14.80;99.90
17252;DHT22;8742;51.716;8.790;2023-09-19T06:38:16;14.90;99.90
17252;DHT22;8742;51.716;8.790;2023-09-19T06:40:44;14.90;99.90
17252;DHT22;8742;51.716;8.790;2023-09-19T06:43:11;15.00;99.90
17252;DHT22;8742;51.716;8.790;2023-09-19T06:45:39;15.00;99.90
17252;DHT22;8742;51.716;8.790;2023-09-19T06:48:06;15.10;99.90
17252;DHT22;8742;51.716;8.790;2023-09-19T06:50:35;15.20;99.90
17252;DHT22;8742;51.716;8.790;2023-09-19T06:53:02;15.30;99.90
17252;DHT22;8742;51.716;8.790;2023-09-19T06:55:31;15.30;99.90
17252;DHT22;8742;51.716;8.790;2023-09-19T06:57:58;15.40;99.90
17252;DHT22;8742;51.716;8.790;2023-09-19T07:00:24;15.40;99.90
17252;DHT22;8742;51.716;8.790;2023-09-19T07:02:56;15.50;99.90
17252;DHT22;8742;51.716;8.790;2023-09-19T07:05:24;15.50;99.90
17252;DHT22;8742;51.716;8.790;2023-09-19T07:07:53;15.60;99.90
17252;DHT22;8742;51.716;8.790;2023-09-19T07:10:20;15.60;99.90
17252;DHT22;8742;51.716;8.790;2023-09-19T07:12:55;15.70;99.90
17252;DHT22;8742;51.716;8.790;2023-09-19T07:15:22;15.70;99.90
17252;DHT22;8742;51.716;8.790;2023-09-19T07:17:51;15.80;99.90
17252;DHT22;8742;51.716;8.790;2023-09-19T07:20:19;15.90;99.90
17252;DHT22;8742;51.716;8.790;2023-09-19T07:22:46;15.90;99.90
17252;DHT22;8742;51.716;8.790;2023-09-19T07:25:13;16.00;99.90
17252;DHT22;8742;51.716;8.790;2023-09-19T07:27:40;16.10;99.90
17252;DHT22;8742;51.716;8.790;2023-09-19T07:30:09;16.10;99.90
17252;DHT22;8742;51.716;8.790;2023-09-19T07:32:37;16.10;99.90
17252;DHT22;8742;51.716;8.790;2023-09-19T07:35:12;16.20;99.90
17252;DHT22;8742;51.716;8.790;2023-09-19T07:37:40;16.30;99.90
17252;DHT22;8742;51.716;8.790;2023-09-19T07:40:08;16.30;99.90
17252;DHT22;8742;51.716;8.790;2023-09-19T07:42:35;16.40;99.90
17252;DHT22;8742;51.716;8.790;2023-09-19T07:45:10;16.50;99.90
17252;DHT22;8742;51.716;8.790;2023-09-19T07:47:44;16.60;99.90
17252;DHT22;8742;51.716;8.790;2023-09-19T07:50:13;16.60;99.90
17252;DHT22;8742;51.716;8.790;2023-09-19T07:52:44;16.70;99.90
17252;DHT22;8742;51.716;8.790;2023-09-19T07:55:11;16.80;99.90
17252;DHT22;8742;51.716;8.790;2023-09-19T07:57:42;16.80;99.90
17252;DHT22;8742;51.716;8.790;2023-09-19T08:00:14;16.90;99.90
17252;DHT22;8742;51.716;8.790;2023-09-19T08:02:42;17.00;99.90
17252;DHT22;8742;51.716;8.790;2023-09-19T08:05:10;17.10;99.90
17252;DHT22;8742;51.716;8.790;2023-09-19T08:07:45;17.20;99.90
17252;DHT22;8742;51.716;8.790;2023-09-19T08:10:16;17.30;99.90
17252;DHT22;8742;51.716;8.790;2023-09-19T08:12:44;17.40;99.90
17252;DHT22;8742;51.716;8.790;2023-09-19T08:15:15;17.60;99.90
17252;DHT22;8742;51.716;8.790;2023-09-19T08:17:42;17.70;99.90
17252;DHT22;8742;51.716;8.790;2023-09-19T08:20:10;17.90;99.90
17252;DHT22;8742;51.716;8.790;2023-09-19T08:22:43;18.00;99.90
17252;DHT22;8742;51.716;8.790;2023-09-19T08:25:11;18.10;99.90
17252;DHT22;8742;51.716;8.790;2023-09-19T08:27:41;18.20;99.90
17252;DHT22;8742;51.716;8.790;2023-09-19T08:30:10;18.30;99.90
17252;DHT22;8742;51.716;8.790;2023-09-19T08:32:38;18.40;99.90
17252;DHT22;8742;51.716;8.790;2023-09-19T08:35:08;18.50;99.90
17252;DHT22;8742;51.716;8.790;2023-09-19T08:37:35;18.60;99.90
17252;DHT22;8742;51.716;8.790;2023-09-19T08:40:02;18.80;99.90
17252;DHT22;8742;51.716;8.790;2023-09-19T08:42:29;19.10;99.90
17252;DHT22;8742;51.716;8.790;2023-09-19T08:44:56;19.30;99.90
17252;DHT22;8742;51.716;8.790;2023-09-19T08:47:33;19.50;99.90
17252;DHT22;8742;51.716;8.790;2023-09-19T08:50:07;19.60;99.90
17252;DHT22;8742;51.716;8.790;2023-09-19T08:52:42;19.70;99.90
17252;DHT22;8742;51.716;8.790;2023-09-19T08:55:12;19.80;99.90
17252;DHT22;8742;51.716;8.790;2023-09-19T08:57:47;19.80;99.90
17252;DHT22;8742;51.716;8.790;2023-09-19T09:00:16;19.90;99.90
17252;DHT22;8742;51.716;8.790;2023-09-19T09:02:47;19.90;99.90
17252;DHT22;8742;51.716;8.790;2023-09-19T09:05:16;19.90;99.90
17252;DHT22;8742;51.716;8.790;2023-09-19T09:07:48;19.90;99.90
17252;DHT22;8742;51.716;8.790;2023-09-19T09:10:16;19.80;99.90
17252;DHT22;8742;51.716;8.790;2023-09-19T09:12:43;19.80;99.90
17252;DHT22;8742;51.716;8.790;2023-09-19T09:15:10;19.90;99.90
17252;DHT22;8742;51.716;8.790;2023-09-19T09:17:41;19.80;99.90
17252;DHT22;8742;51.716;8.790;2023-09-19T09:20:11;19.90;99.90
17252;DHT22;8742;51.716;8.790;2023-09-19T09:22:50;19.90;99.90
17252;DHT22;8742;51.716;8.790;2023-09-19T09:25:17;19.90;99.90
17252;DHT22;8742;51.716;8.790;2023-09-19T09:27:46;19.90;99.90
17252;DHT22;8742;51.716;8.790;2023-09-19T09:30:33;19.90;99.90
17252;DHT22;8742;51.716;8.790;2023-09-19T09:33:10;20.00;99.90
17252;DHT22;8742;51.716;8.790;2023-09-19T09:35:37;20.10;99.90
17252;DHT22;8742;51.716;8.790;2023-09-19T09:38:09;20.20;99.90
17252;DHT22;8742;51.716;8.790;2023-09-19T09:40:46;20.30;99.90
17252;DHT22;8742;51.716;8.790;2023-09-19T09:43:29;20.50;99.90
17252;DHT22;8742;51.716;8.790;2023-09-19T09:46:08;20.60;99.90
17252;DHT22;8742;51.716;8.790;2023-09-19T09:48:59;20.70;99.90
17252;DHT22;8742;51.716;8.790;2023-09-19T09:51:45;20.90;99.90
17252;DHT22;8742;51.716;8.790;2023-09-19T09:54:16;21.10;99.90
17252;DHT22;8742;51.716;8.790;2023-09-19T09:56:54;21.10;99.90
17252;DHT22;8742;51.716;8.790;2023-09-19T09:59:49;21.30;99.90
17252;DHT22;8742;51.716;8.790;2023-09-19T10:02:17;21.60;99.90
17252;DHT22;8742;51.716;8.790;2023-09-19T10:04:49;21.80;99.90
17252;DHT22;8742;51.716;8.790;2023-09-19T10:07:29;21.80;99.90
17252;DHT22;8742;51.716;8.790;2023-09-19T10:10:03;21.70;99.90
17252;DHT22;8742;51.716;8.790;2023-09-19T10:12:43;21.50;99.90
17252;DHT22;8742;51.716;8.790;2023-09-19T10:15:12;21.30;99.90
17252;DHT22;8742;51.716;8.790;2023-09-19T10:17:46;21.20;99.90
17252;DHT22;8742;51.716;8.790;2023-09-19T10:20:14;21.10;99.90
17252;DHT22;8742;51.716;8.790;2023-09-19T10:22:53;21.10;99.90
17252;DHT22;8742;51.716;8.790;2023-09-19T10:25:27;21.20;99.90
17252;DHT22;8742;51.716;8.790;2023-09-19T10:27:57;21.20;99.90
17252;DHT22;8742;51.716;8.790;2023-09-19T10:30:25;21.20;99.90
17252;DHT22;8742;51.716;8.790;2023-09-19T10:33:00;21.20;99.90
17252;DHT22;8742;51.716;8.790;2023-09-19T10:35:27;21.40;99.90
17252;DHT22;8742;51.716;8.790;2023-09-19T10:37:56;21.70;99.90
17252;DHT22;8742;51.716;8.790;2023-09-19T10:40:27;22.00;99.90
17252;DHT22;8742;51.716;8.790;2023-09-19T10:43:00;22.20;99.90
17252;DHT22;8742;51.716;8.790;2023-09-19T10:45:30;22.40;99.90
17252;DHT22;8742;51.716;8.790;2023-09-19T10:47:57;22.40;99.90
17252;DHT22;8742;51.716;8.790;2023-09-19T10:50:24;22.50;99.90
17252;DHT22;8742;51.716;8.790;2023-09-19T10:52:54;22.80;99.90
17252;DHT22;8742;51.716;8.790;2023-09-19T10:55:27;22.80;99.90
17252;DHT22;8742;51.716;8.790;2023-09-19T10:57:55;22.70;99.90
17252;DHT22;8742;51.716;8.790;2023-09-19T11:00:30;22.70;99.90
17252;DHT22;8742;51.716;8.790;2023-09-19T11:03:18;22.80;99.90
17252;DHT22;8742;51.716;8.790;2023-09-19T11:06:10;23.20;99.90
17252;DHT22;8742;51.716;8.790;2023-09-19T11:09:09;23.50;99.90
17252;DHT22;8742;51.716;8.790;2023-09-19T11:11:49;23.80;99.90
17252;DHT22;8742;51.716;8.790;2023-09-19T11:14:39;24.20;99.90
17252;DHT22;8742;51.716;8.790;2023-09-19T11:20:24;24.50;99.90
17252;DHT22;8742;51.716;8.790;2023-09-19T11:23:28;24.40;99.90
17252;DHT22;8742;51.716;8.790;2023-09-19T11:25:56;24.50;99.90
17252;DHT22;8742;51.716;8.790;2023-09-19T11:28:34;24.90;99.90
17252;DHT22;8742;51.716;8.790;2023-09-19T11:40:37;23.80;99.40
17252;DHT22;8742;51.716;8.790;2023-09-19T11:43:33;23.90;99.70
17252;DHT22;8742;51.716;8.790;2023-09-19T11:46:05;23.70;99.30
17252;DHT22;8742;51.716;8.790;2023-09-19T11:48:32;23.30;99.40
17252;DHT22;8742;51.716;8.790;2023-09-19T11:51:00;23.10;98.90
17252;DHT22;8742;51.716;8.790;2023-09-19T11:53:33;23.20;99.30
17252;DHT22;8742;51.716;8.790;2023-09-19T11:56:01;23.00;98.80
17252;DHT22;8742;51.716;8.790;2023-09-19T11:58:30;22.80;99.00
17252;DHT22;8742;51.716;8.790;2023-09-19T12:01:00;22.50;99.60
17252;DHT22;8742;51.716;8.790;2023-09-19T12:03:34;22.70;99.90
17252;DHT22;8742;51.716;8.790;2023-09-19T12:06:11;23.10;99.90
17252;DHT22;8742;51.716;8.790;2023-09-19T12:08:40;23.30;99.90
17252;DHT22;8742;51.716;8.790;2023-09-19T12:11:13;23.90;98.70
17252;DHT22;8742;51.716;8.790;2023-09-19T12:13:42;24.10;98.10
17252;DHT22;8742;51.716;8.790;2023-09-19T12:16:13;24.20;98.60
17252;DHT22;8742;51.716;8.790;2023-09-19T12:18:42;24.10;97.90
17252;DHT22;8742;51.716;8.790;2023-09-19T12:21:25;24.50;97.70
17252;DHT22;8742;51.716;8.790;2023-09-19T12:23:59;24.70;97.20
17252;DHT22;8742;51.716;8.790;2023-09-19T12:26:27;24.60;96.50
17252;DHT22;8742;51.716;8.790;2023-09-19T12:28:55;24.30;96.80
17252;DHT22;8742;51.716;8.790;2023-09-19T12:31:24;24.30;96.20
17252;DHT22;8742;51.716;8.790;2023-09-19T12:33:53;23.90;96.50
17252;DHT22;8742;51.716;8.790;2023-09-19T12:36:21;23.90;97.70
17252;DHT22;8742;51.716;8.790;2023-09-19T12:38:54;24.40;96.90
17252;DHT22;8742;51.716;8.790;2023-09-19T12:41:22;25.20;96.60
17252;DHT22;8742;51.716;8.790;2023-09-19T12:43:49;26.00;96.50
17252;DHT22;8742;51.716;8.790;2023-09-19T12:46:20;26.20;94.30
17252;DHT22;8742;51.716;8.790;2023-09-19T12:49:15;26.50;95.20
17252;DHT22;8742;51.716;8.790;2023-09-19T12:51:43;26.80;94.80
17252;DHT22;8742;51.716;8.790;2023-09-19T12:54:10;26.60;93.10
17252;DHT22;8742;51.716;8.790;2023-09-19T12:56:40;26.10;92.10
17252;DHT22;8742;51.716;8.790;2023-09-19T12:59:11;25.70;94.00
17252;DHT22;8742;51.716;8.790;2023-09-19T13:01:39;25.60;93.30
17252;DHT22;8742;51.716;8.790;2023-09-19T13:04:12;25.20;93.00
17252;DHT22;8742;51.716;8.790;2023-09-19T13:06:41;24.90;93.80
17252;DHT22;8742;51.716;8.790;2023-09-19T13:09:10;25.00;94.30
17252;DHT22;8742;51.716;8.790;2023-09-19T13:11:38;25.30;92.90
17252;DHT22;8742;51.716;8.790;2023-09-19T13:14:19;25.00;93.50
17252;DHT22;8742;51.716;8.790;2023-09-19T13:16:56;25.10;93.10
17252;DHT22;8742;51.716;8.790;2023-09-19T13:19:41;25.50;93.50
17252;DHT22;8742;51.716;8.790;2023-09-19T13:22:36;26.00;92.40
17252;DHT22;8742;51.716;8.790;2023-09-19T13:25:04;26.10;91.40
17252;DHT22;8742;51.716;8.790;2023-09-19T13:27:32;26.20;90.40
17252;DHT22;8742;51.716;8.790;2023-09-19T13:29:59;26.50;91.00
17252;DHT22;8742;51.716;8.790;2023-09-19T13:32:26;26.90;90.80
17252;DHT22;8742;51.716;8.790;2023-09-19T13:34:54;27.20;90.20
17252;DHT22;8742;51.716;8.790;2023-09-19T13:37:21;27.10;89.30
17252;DHT22;8742;51.716;8.790;2023-09-19T13:39:48;26.80;88.50
17252;DHT22;8742;51.716;8.790;2023-09-19T13:42:14;26.60;89.50
17252;DHT22;8742;51.716;8.790;2023-09-19T13:44:42;26.40;90.50
17252;DHT22;8742;51.716;8.790;2023-09-19T13:47:09;26.10;90.00
17252;DHT22;8742;51.716;8.790;2023-09-19T13:49:38;26.40;91.00
17252;DHT22;8742;51.716;8.790;2023-09-19T13:52:07;26.60;88.50
17252;DHT22;8742;51.716;8.790;2023-09-19T13:54:33;26.40;89.50
17252;DHT22;8742;51.716;8.790;2023-09-19T13:57:00;26.10;89.70
17252;DHT22;8742;51.716;8.790;2023-09-19T13:59:27;26.00;87.80
17252;DHT22;8742;51.716;8.790;2023-09-19T14:01:55;25.90;90.40
17252;DHT22;8742;51.716;8.790;2023-09-19T14:04:22;26.00;90.20
17252;DHT22;8742;51.716;8.790;2023-09-19T14:06:49;25.80;88.70
17252;DHT22;8742;51.716;8.790;2023-09-19T14:09:17;25.60;90.20
17252;DHT22;8742;51.716;8.790;2023-09-19T14:11:45;25.70;89.20
17252;DHT22;8742;51.716;8.790;2023-09-19T14:14:13;25.40;89.70
17252;DHT22;8742;51.716;8.790;2023-09-19T14:16:40;25.00;90.40
17252;DHT22;8742;51.716;8.790;2023-09-19T14:19:07;24.50;90.70
17252;DHT22;8742;51.716;8.790;2023-09-19T14:21:35;24.10;91.00
17252;DHT22;8742;51.716;8.790;2023-09-19T14:24:05;23.70;92.00
17252;DHT22;8742;51.716;8.790;2023-09-19T14:26:36;23.30;92.20
17252;DHT22;8742;51.716;8.790;2023-09-19T14:29:05;23.40;93.10
17252;DHT22;8742;51.716;8.790;2023-09-19T14:31:37;24.00;92.00
17252;DHT22;8742;51.716;8.790;2023-09-19T14:34:06;24.20;92.30
17252;DHT22;8742;51.716;8.790;2023-09-19T14:36:40;24.60;92.90
17252;DHT22;8742;51.716;8.790;2023-09-19T14:39:08;25.10;91.50
17252;DHT22;8742;51.716;8.790;2023-09-19T14:41:36;25.80;90.80
17252;DHT22;8742;51.716;8.790;2023-09-19T14:44:04;26.40;90.00
17252;DHT22;8742;51.716;8.790;2023-09-19T14:46:31;27.00;87.60
17252;DHT22;8742;51.716;8.790;2023-09-19T14:48:58;27.30;85.90
17252;DHT22;8742;51.716;8.790;2023-09-19T14:51:29;27.10;86.30
17252;DHT22;8742;51.716;8.790;2023-09-19T14:53:57;26.90;85.80
17252;DHT22;8742;51.716;8.790;2023-09-19T14:56:28;26.80;86.60
17252;DHT22;8742;51.716;8.790;2023-09-19T14:58:58;26.90;88.20
17252;DHT22;8742;51.716;8.790;2023-09-19T15:01:25;27.10;87.00
17252;DHT22;8742;51.716;8.790;2023-09-19T15:03:52;27.10;85.60
17252;DHT22;8742;51.716;8.790;2023-09-19T15:06:19;26.70;86.00
17252;DHT22;8742;51.716;8.790;2023-09-19T15:08:48;26.00;89.40
17252;DHT22;8742;51.716;8.790;2023-09-19T15:11:16;25.80;90.40
17252;DHT22;8742;51.716;8.790;2023-09-19T15:13:43;26.10;88.40
17252;DHT22;8742;51.716;8.790;2023-09-19T15:16:12;26.30;87.00
17252;DHT22;8742;51.716;8.790;2023-09-19T15:18:40;25.90;87.70
17252;DHT22;8742;51.716;8.790;2023-09-19T15:21:08;25.20;87.50
17252;DHT22;8742;51.716;8.790;2023-09-19T15:23:36;24.40;89.10
17252;DHT22;8742;51.716;8.790;2023-09-19T15:26:04;23.70;90.20
17252;DHT22;8742;51.716;8.790;2023-09-19T15:28:31;23.20;90.70
17252;DHT22;8742;51.716;8.790;2023-09-19T15:31:00;22.70;91.60
17252;DHT22;8742;51.716;8.790;2023-09-19T15:33:28;22.30;92.50
17252;DHT22;8742;51.716;8.790;2023-09-19T15:36:03;22.00;92.80
17252;DHT22;8742;51.716;8.790;2023-09-19T15:38:30;21.70;93.30
17252;DHT22;8742;51.716;8.790;2023-09-19T15:40:58;21.50;93.10
17252;DHT22;8742;51.716;8.790;2023-09-19T15:43:25;21.30;93.30
17252;DHT22;8742;51.716;8.790;2023-09-19T15:45:52;21.10;93.30
17252;DHT22;8742;51.716;8.790;2023-09-19T15:48:19;21.00;93.40
17252;DHT22;8742;51.716;8.790;2023-09-19T15:50:48;20.80;94.00
17252;DHT22;8742;51.716;8.790;2023-09-19T15:53:15;20.80;93.90
17252;DHT22;8742;51.716;8.790;2023-09-19T15:55:42;20.70;93.90
17252;DHT22;8742;51.716;8.790;2023-09-19T15:58:10;20.60;94.10
17252;DHT22;8742;51.716;8.790;2023-09-19T16:00:40;20.50;94.30
17252;DHT22;8742;51.716;8.790;2023-09-19T16:03:07;20.40;94.80
17252;DHT22;8742;51.716;8.790;2023-09-19T16:05:35;20.30;94.80
17252;DHT22;8742;51.716;8.790;2023-09-19T16:08:07;20.30;95.00
17252;DHT22;8742;51.716;8.790;2023-09-19T16:10:37;20.30;95.10
17252;DHT22;8742;51.716;8.790;2023-09-19T16:13:04;20.20;95.30
17252;DHT22;8742;51.716;8.790;2023-09-19T16:15:30;20.10;95.40